createdAt,value
2018-07-24T00:00:06.797Z,9.30
2018-07-24T00:02:35.104Z,10.87
2018-07-24T00:05:03.572Z,11.53
2018-07-24T00:07:31.857Z,11.03
2018-07-24T00:10:01.913Z,11.73
2018-07-24T00:12:30.318Z,13.23
2018-07-24T00:14:58.601Z,13.07
2018-07-24T00:17:26.885Z,11.43
2018-07-24T00:19:55.169Z,10.13
2018-07-24T00:22:23.429Z,17.50
2018-07-24T00:24:51.781Z,10.27
2018-07-24T00:27:20.025Z,11.03
2018-07-24T00:29:48.294Z,9.90
2018-07-24T00:32:16.620Z,11.53
2018-07-24T00:34:44.814Z,11.40
2018-07-24T00:37:13.181Z,12.27
2018-07-24T00:39:41.440Z,13.87
2018-07-24T00:42:09.725Z,12.17
2018-07-24T00:44:37.969Z,11.80
2018-07-24T00:47:06.269Z,11.77
2018-07-24T00:49:34.513Z,12.97
2018-07-24T00:52:02.788Z,14.30
2018-07-24T00:54:31.025Z,11.60
2018-07-24T00:56:59.302Z,9.73
2018-07-24T00:59:27.617Z,11.87
2018-07-24T01:01:56.065Z,12.90
2018-07-24T01:04:24.313Z,11.77
2018-07-24T01:06:52.586Z,10.53
2018-07-24T01:09:20.821Z,9.90
2018-07-24T01:11:49.106Z,10.83
2018-07-24T01:14:17.347Z,10.73
2018-07-24T01:16:45.617Z,9.90
2018-07-24T01:19:13.861Z,9.93
2018-07-24T01:21:42.137Z,14.43
2018-07-24T01:24:10.386Z,13.60
2018-07-24T01:26:38.744Z,17.80
2018-07-24T01:29:07.052Z,15.67
2018-07-24T01:31:35.292Z,15.43
2018-07-24T01:34:03.590Z,17.17
2018-07-24T01:36:31.842Z,15.93
2018-07-24T01:39:00.142Z,17.90
2018-07-24T01:41:28.409Z,19.60
2018-07-24T01:43:56.685Z,13.17
2018-07-24T01:46:24.917Z,15.97
2018-07-24T01:48:53.177Z,14.23
2018-07-24T01:51:21.433Z,12.33
2018-07-24T01:53:49.704Z,13.40
2018-07-24T01:56:17.941Z,14.67
2018-07-24T01:58:46.205Z,17.23
2018-07-24T02:01:17.328Z,14.43
2018-07-24T02:03:45.605Z,14.07
2018-07-24T02:06:14.029Z,15.47
2018-07-24T02:08:42.301Z,15.33
2018-07-24T02:11:10.549Z,15.30
2018-07-24T02:13:38.852Z,20.20
2018-07-24T02:16:07.169Z,19.10
2018-07-24T02:18:35.444Z,18.50
2018-07-24T02:21:03.726Z,16.77
2018-07-24T02:23:31.997Z,16.57
2018-07-24T02:26:00.297Z,16.30
2018-07-24T02:28:28.568Z,15.47
2018-07-24T02:30:56.861Z,16.13
2018-07-24T02:33:25.106Z,18.33
2018-07-24T02:35:53.385Z,14.53
2018-07-24T02:38:21.640Z,15.63
2018-07-24T02:40:49.918Z,14.53
2018-07-24T02:43:24.204Z,18.27
2018-07-24T02:45:52.534Z,16.57
2018-07-24T02:48:20.802Z,16.00
2018-07-24T02:50:49.105Z,23.13
2018-07-24T02:53:17.369Z,21.03
2018-07-24T02:55:45.695Z,14.83
2018-07-24T02:58:13.973Z,15.43
2018-07-24T03:00:42.267Z,16.03
2018-07-24T03:03:10.534Z,17.17
2018-07-24T03:05:38.865Z,21.93
2018-07-24T03:08:07.143Z,18.07
2018-07-24T03:10:35.452Z,23.50
2018-07-24T03:13:03.765Z,22.00
2018-07-24T03:15:33.077Z,17.40
2018-07-24T03:18:01.326Z,15.90
2018-07-24T03:20:29.625Z,19.27
2018-07-24T03:22:57.981Z,19.93
2018-07-24T03:25:26.300Z,17.10
2018-07-24T03:27:54.693Z,16.70
2018-07-24T03:30:22.953Z,16.57
2018-07-24T03:32:52.265Z,16.30
2018-07-24T03:35:20.516Z,20.03
2018-07-24T03:37:49.817Z,19.32
2018-07-24T03:40:18.137Z,21.13
2018-07-24T03:42:46.441Z,17.33
2018-07-24T03:45:14.717Z,23.30
2018-07-24T03:47:43.121Z,17.43
2018-07-24T03:50:11.369Z,17.47
2018-07-24T03:52:40.702Z,20.13
2018-07-24T03:55:09.094Z,15.90
2018-07-24T03:57:37.398Z,16.90
2018-07-24T04:00:06.457Z,18.43
2018-07-24T04:02:34.753Z,17.90
2018-07-24T04:05:03.069Z,20.40
2018-07-24T04:07:31.361Z,20.27
2018-07-24T04:09:59.622Z,19.70
2018-07-24T04:12:27.917Z,26.50
2018-07-24T04:14:56.198Z,22.60
2018-07-24T04:17:24.464Z,21.17
2018-07-24T04:19:52.745Z,23.85
2018-07-24T04:22:21.021Z,22.43
2018-07-24T04:24:49.323Z,24.13
2018-07-24T04:27:17.615Z,21.77
2018-07-24T04:29:45.896Z,19.47
2018-07-24T04:32:14.325Z,20.13
2018-07-24T04:34:42.631Z,21.60
2018-07-24T04:37:10.901Z,23.00
2018-07-24T04:39:40.200Z,24.60
2018-07-24T04:42:08.820Z,19.63
2018-07-24T04:44:38.188Z,18.57
2018-07-24T04:47:06.465Z,20.33
2018-07-24T04:49:34.821Z,18.80
2018-07-24T04:52:03.109Z,20.07
2018-07-24T04:54:31.405Z,17.13
2018-07-24T04:56:59.665Z,19.47
2018-07-24T04:59:27.968Z,18.70
2018-07-24T05:01:56.409Z,22.80
2018-07-24T05:04:24.805Z,21.40
2018-07-24T05:06:53.078Z,16.50
2018-07-24T05:09:21.452Z,19.30
2018-07-24T05:11:49.713Z,18.43
2018-07-24T05:14:17.976Z,24.73
2018-07-24T05:16:47.352Z,19.60
2018-07-24T05:19:15.557Z,19.63
2018-07-24T05:21:43.834Z,18.47
2018-07-24T05:24:12.101Z,20.90
2018-07-24T05:26:40.450Z,22.43
2018-07-24T05:29:08.673Z,17.20
2018-07-24T05:31:36.966Z,16.97
2018-07-24T05:34:06.267Z,16.37
2018-07-24T05:36:34.576Z,16.90
2018-07-24T05:39:02.865Z,16.07
2018-07-24T05:41:31.153Z,15.00
2018-07-24T05:43:59.416Z,17.17
2018-07-24T05:46:27.701Z,17.47
2018-07-24T05:48:56.046Z,18.80
2018-07-24T05:51:24.288Z,13.90
2018-07-24T05:53:52.544Z,15.47
2018-07-24T05:56:20.854Z,19.67
2018-07-24T05:58:49.108Z,12.10
2018-07-24T06:01:17.362Z,11.90
2018-07-24T06:03:45.648Z,12.40
2018-07-24T06:06:13.905Z,11.77
2018-07-24T06:08:42.189Z,17.50
2018-07-24T06:11:10.449Z,11.47
2018-07-24T06:13:38.730Z,10.17
2018-07-24T06:16:07.002Z,8.77
2018-07-24T06:18:35.282Z,7.30
2018-07-24T06:21:03.549Z,13.10
2018-07-24T06:23:31.913Z,6.90
2018-07-24T06:26:00.317Z,7.50
2018-07-24T06:28:28.610Z,7.27
2018-07-24T06:30:56.887Z,7.83
2018-07-24T06:33:25.197Z,8.10
2018-07-24T06:35:53.694Z,5.70
2018-07-24T06:38:21.971Z,6.63
2018-07-24T06:40:50.227Z,6.37
2018-07-24T06:43:18.517Z,5.03
2018-07-24T06:45:46.801Z,5.43
2018-07-24T06:48:15.143Z,5.00
2018-07-24T06:50:43.398Z,6.07
2018-07-24T06:53:11.645Z,3.73
2018-07-24T06:55:39.926Z,5.13
2018-07-24T06:58:08.204Z,8.07
2018-07-24T07:00:36.489Z,4.67
2018-07-24T07:03:04.756Z,4.13
2018-07-24T07:05:34.045Z,4.10
2018-07-24T07:08:02.322Z,3.43
2018-07-24T07:10:30.613Z,4.63
2018-07-24T07:12:58.926Z,4.33
2018-07-24T07:15:27.170Z,4.80
2018-07-24T07:17:56.502Z,3.10
2018-07-24T07:20:24.812Z,8.93
2018-07-24T07:22:53.085Z,4.07
2018-07-24T07:25:21.381Z,6.65
2018-07-24T07:27:49.669Z,3.40
2018-07-24T07:30:19.034Z,4.97
2018-07-24T07:32:47.297Z,2.83
2018-07-24T07:35:15.623Z,6.00
2018-07-24T07:37:43.881Z,3.77
2018-07-24T07:40:12.281Z,5.97
2018-07-24T07:42:41.601Z,2.80
2018-07-24T07:45:09.940Z,3.03
2018-07-24T07:47:38.694Z,3.50
2018-07-24T07:50:07.965Z,3.03
2018-07-24T07:52:36.326Z,3.07
2018-07-24T07:55:05.565Z,5.00
2018-07-24T07:57:33.884Z,5.40
2018-07-24T08:00:02.169Z,4.60
2018-07-24T08:02:30.493Z,7.17
2018-07-24T08:04:58.769Z,6.00
2018-07-24T08:07:27.048Z,3.60
2018-07-24T08:09:55.317Z,3.87
2018-07-24T08:12:24.658Z,5.07
2018-07-24T08:14:52.889Z,5.30
2018-07-24T08:17:21.172Z,5.60
2018-07-24T08:19:49.456Z,5.27
2018-07-24T08:22:19.791Z,3.40
2018-07-24T08:24:48.060Z,4.53
2018-07-24T08:27:16.401Z,4.00
2018-07-24T08:29:45.708Z,6.30
2018-07-24T08:32:13.996Z,3.50
2018-07-24T08:34:42.270Z,5.33
2018-07-24T08:37:10.603Z,3.60
2018-07-24T08:39:38.968Z,7.47
2018-07-24T08:42:07.261Z,9.17
2018-07-24T08:44:35.544Z,5.77
2018-07-24T08:47:03.801Z,3.67
2018-07-24T08:49:32.090Z,3.57
2018-07-24T08:52:00.395Z,3.40
2018-07-24T08:54:28.909Z,3.83
2018-07-24T08:56:58.077Z,3.83
2018-07-24T08:59:27.450Z,5.13
2018-07-24T09:01:55.753Z,3.73
2018-07-24T09:04:25.083Z,3.20
2018-07-24T09:06:53.407Z,4.07
2018-07-24T09:09:21.708Z,3.20
2018-07-24T09:11:52.027Z,4.13
2018-07-24T09:14:20.673Z,3.70
2018-07-24T09:16:48.941Z,3.53
2018-07-24T09:19:17.328Z,4.60
2018-07-24T09:21:45.601Z,3.80
2018-07-24T09:24:13.916Z,4.47
2018-07-24T09:26:42.206Z,4.00
2018-07-24T09:29:10.553Z,6.17
2018-07-24T09:31:40.002Z,4.70
2018-07-24T09:34:08.446Z,4.40
2018-07-24T09:36:37.773Z,4.80
2018-07-24T09:39:08.857Z,5.50
2018-07-24T09:41:37.443Z,4.50
2018-07-24T09:44:05.746Z,5.70
2018-07-24T09:46:35.094Z,7.37
2018-07-24T09:49:03.386Z,10.53
2018-07-24T09:51:31.713Z,13.07
2018-07-24T09:53:59.985Z,6.70
2018-07-24T09:56:28.317Z,8.10
2018-07-24T09:58:56.541Z,4.90
2018-07-24T10:01:33.828Z,6.10
2018-07-24T10:04:02.849Z,5.30
2018-07-24T10:06:31.721Z,4.87
2018-07-24T10:09:01.014Z,4.83
2018-07-24T10:11:29.361Z,9.80
2018-07-24T10:13:59.916Z,6.10
2018-07-24T10:16:28.236Z,7.10
2018-07-24T10:18:57.540Z,7.30
2018-07-24T10:21:29.222Z,16.07
2018-07-24T10:23:57.497Z,4.93
2018-07-24T10:26:25.825Z,4.70
2018-07-24T10:28:54.102Z,7.73
2018-07-24T10:31:22.405Z,8.40
2018-07-24T10:33:50.688Z,5.80
2018-07-24T10:36:19.014Z,4.20
2018-07-24T10:38:47.281Z,4.27
2018-07-24T10:41:15.591Z,4.27
2018-07-24T10:43:44.898Z,4.90
2018-07-24T10:46:14.273Z,4.93
2018-07-24T10:48:44.566Z,7.37
2018-07-24T10:51:12.957Z,8.13
2018-07-24T10:53:41.949Z,6.90
2018-07-24T10:56:10.225Z,4.30
2018-07-24T10:58:38.536Z,6.27
2018-07-24T11:01:06.861Z,6.30
2018-07-24T11:03:35.185Z,4.60
2018-07-24T11:06:03.473Z,7.10
2018-07-24T11:08:31.777Z,4.37
2018-07-24T11:11:00.108Z,5.43
2018-07-24T11:13:28.361Z,8.87
2018-07-24T11:15:56.634Z,4.03
2018-07-24T11:18:24.969Z,4.80
2018-07-24T11:20:53.257Z,5.30
2018-07-24T11:23:21.659Z,4.07
2018-07-24T11:25:50.880Z,4.40
2018-07-24T11:28:19.236Z,6.43
2018-07-24T11:30:47.582Z,4.13
2018-07-24T11:33:15.958Z,4.70
2018-07-24T11:35:44.337Z,5.30
2018-07-24T11:38:13.525Z,8.83
2018-07-24T11:40:41.946Z,3.97
2018-07-24T11:43:10.220Z,4.27
2018-07-24T11:45:38.537Z,5.50
2018-07-24T11:48:06.840Z,5.80
2018-07-24T11:50:35.269Z,13.20
2018-07-24T11:53:04.644Z,4.30
2018-07-24T11:55:33.038Z,4.67
2018-07-24T11:58:01.336Z,6.97
2018-07-24T12:00:30.681Z,4.97
2018-07-24T12:02:58.958Z,8.97
2018-07-24T12:05:27.259Z,6.70
2018-07-24T12:07:56.687Z,4.87
2018-07-24T12:10:28.245Z,4.20
2018-07-24T12:12:56.521Z,5.13
2018-07-24T12:15:24.840Z,4.97
2018-07-24T12:17:53.135Z,4.80
2018-07-24T12:20:21.469Z,5.80
2018-07-24T12:22:49.766Z,4.23
2018-07-24T12:25:18.087Z,5.10
2018-07-24T12:27:46.410Z,8.87
2018-07-24T12:30:14.685Z,4.90
2018-07-24T12:32:43.010Z,4.80
2018-07-24T12:35:11.283Z,8.37
2018-07-24T12:37:40.633Z,5.03
2018-07-24T12:40:08.920Z,4.47
2018-07-24T12:42:38.276Z,4.77
2018-07-24T12:45:06.714Z,4.13
2018-07-24T12:47:39.522Z,6.33
2018-07-24T12:50:08.053Z,4.00
2018-07-24T12:52:37.453Z,4.50
2018-07-24T12:55:05.785Z,4.50
2018-07-24T12:57:34.169Z,3.80
2018-07-24T13:00:02.805Z,4.77
2018-07-24T13:02:31.117Z,5.37
2018-07-24T13:04:59.594Z,4.00
2018-07-24T13:07:28.007Z,3.93
2018-07-24T13:09:56.345Z,5.70
2018-07-24T13:12:24.617Z,5.20
2018-07-24T13:14:52.951Z,5.63
2018-07-24T13:17:21.286Z,6.23
2018-07-24T13:19:50.654Z,3.90
2018-07-24T13:22:18.993Z,8.90
2018-07-24T13:24:47.268Z,4.40
2018-07-24T13:27:15.619Z,4.47
2018-07-24T13:29:44.961Z,8.70
2018-07-24T13:32:13.331Z,3.93
2018-07-24T13:34:41.578Z,4.70
2018-07-24T13:37:09.854Z,5.03
2018-07-24T13:39:38.189Z,3.80
2018-07-24T13:42:06.497Z,4.63
2018-07-24T13:44:34.807Z,3.80
2018-07-24T13:47:03.178Z,4.10
2018-07-24T13:49:31.488Z,4.50
2018-07-24T13:52:00.783Z,4.13
2018-07-24T13:54:29.138Z,4.47
2018-07-24T13:56:58.461Z,6.10
2018-07-24T13:59:26.833Z,3.40
2018-07-24T14:01:55.101Z,3.73
2018-07-24T14:04:23.417Z,6.47
2018-07-24T14:06:51.698Z,4.23
2018-07-24T14:09:20.014Z,3.40
2018-07-24T14:11:48.294Z,2.63
2018-07-24T14:14:16.742Z,3.70
2018-07-24T14:16:44.937Z,3.50
2018-07-24T14:19:13.245Z,7.35
2018-07-24T14:21:41.580Z,3.60
2018-07-24T14:24:10.697Z,7.47
2018-07-24T14:26:40.018Z,3.57
2018-07-24T14:29:09.306Z,3.50
2018-07-24T14:31:37.590Z,4.20
2018-07-24T14:34:06.898Z,5.20
2018-07-24T14:36:35.253Z,4.10
2018-07-24T14:39:03.665Z,4.10
2018-07-24T14:41:33.124Z,4.50
2018-07-24T14:44:01.401Z,3.60
2018-07-24T14:46:29.750Z,5.27
2018-07-24T14:48:57.986Z,5.03
2018-07-24T14:51:26.284Z,4.53
2018-07-24T14:53:54.570Z,4.27
2018-07-24T14:56:22.882Z,3.03
2018-07-24T14:58:51.190Z,3.03
2018-07-24T15:01:19.697Z,6.30
2018-07-24T15:03:47.973Z,3.00
2018-07-24T15:06:16.292Z,2.60
2018-07-24T15:08:44.572Z,8.37
2018-07-24T15:11:12.907Z,2.40
2018-07-24T15:13:41.217Z,2.73
2018-07-24T15:16:09.535Z,2.20
2018-07-24T15:18:37.797Z,2.87
2018-07-24T15:21:06.081Z,3.90
2018-07-24T15:23:35.411Z,12.77
2018-07-24T15:26:04.162Z,4.43
2018-07-24T15:28:32.508Z,2.87
2018-07-24T15:31:00.794Z,5.53
2018-07-24T15:33:29.099Z,4.27
2018-07-24T15:35:57.414Z,4.00
2018-07-24T15:38:25.701Z,4.30
2018-07-24T15:40:54.027Z,6.47
2018-07-24T15:43:22.409Z,3.43
2018-07-24T15:45:51.719Z,5.13
2018-07-24T15:48:20.049Z,2.90
2018-07-24T15:50:48.879Z,2.77
2018-07-24T15:53:17.205Z,3.02
2018-07-24T15:55:46.545Z,2.50
2018-07-24T15:58:14.985Z,2.60
2018-07-24T16:00:44.329Z,5.80
2018-07-24T16:03:12.643Z,3.13
2018-07-24T16:05:40.933Z,8.80
2018-07-24T16:08:09.307Z,3.02
2018-07-24T16:10:37.577Z,2.73
2018-07-24T16:13:05.915Z,9.78
2018-07-24T16:15:34.343Z,5.87
2018-07-24T16:18:02.503Z,5.75
2018-07-24T16:20:30.810Z,4.40
2018-07-24T16:22:59.061Z,2.15
2018-07-24T16:25:27.405Z,2.55
2018-07-24T16:27:56.680Z,3.10
2018-07-24T16:30:24.993Z,6.08
2018-07-24T16:32:53.269Z,2.40
2018-07-24T16:35:21.581Z,2.50
2018-07-24T16:37:49.893Z,6.27
2018-07-24T16:40:18.233Z,8.28
2018-07-24T16:42:46.553Z,7.37
2018-07-24T16:45:14.858Z,7.00
2018-07-24T16:47:45.361Z,3.87
2018-07-24T16:50:13.741Z,6.27
2018-07-24T16:52:42.017Z,3.30
2018-07-24T16:55:10.358Z,5.35
2018-07-24T16:57:38.635Z,5.15
2018-07-24T17:00:08.046Z,4.25
2018-07-24T17:02:36.324Z,6.60
2018-07-24T17:05:04.617Z,4.28
2018-07-24T17:07:32.965Z,3.12
2018-07-24T17:10:03.393Z,2.23
2018-07-24T17:12:31.719Z,5.37
2018-07-24T17:14:59.996Z,3.40
2018-07-24T17:17:28.326Z,3.60
2018-07-24T17:19:56.681Z,3.10
2018-07-24T17:22:25.040Z,4.50
2018-07-24T17:24:53.325Z,2.97
2018-07-24T17:27:21.670Z,2.70
2018-07-24T17:29:49.976Z,3.80
2018-07-24T17:32:18.305Z,2.57
2018-07-24T17:34:46.606Z,3.10
2018-07-24T17:37:15.984Z,3.87
2018-07-24T17:39:45.245Z,3.17
2018-07-24T17:42:13.577Z,3.60
2018-07-24T17:44:43.925Z,4.90
2018-07-24T17:47:12.281Z,2.57
2018-07-24T17:49:40.583Z,5.53
2018-07-24T17:52:10.033Z,3.47
2018-07-24T17:54:38.323Z,4.00
2018-07-24T17:57:06.635Z,7.73
2018-07-24T17:59:35.026Z,5.80
2018-07-24T18:02:03.877Z,2.83
2018-07-24T18:04:33.477Z,3.97
2018-07-24T18:07:01.794Z,3.90
2018-07-24T18:09:30.222Z,5.50
2018-07-24T18:11:58.558Z,7.63
2018-07-24T18:14:26.868Z,4.07
2018-07-24T18:16:59.137Z,3.43
2018-07-24T18:19:27.469Z,4.60
2018-07-24T18:21:56.839Z,7.97
2018-07-24T18:24:29.123Z,4.83
2018-07-24T18:26:58.606Z,3.63
2018-07-24T18:29:26.902Z,3.57
2018-07-24T18:31:55.315Z,8.70
2018-07-24T18:34:23.656Z,3.33
2018-07-24T18:36:52.043Z,4.10
2018-07-24T18:39:21.365Z,3.73
2018-07-24T18:41:50.785Z,4.57
2018-07-24T18:44:19.082Z,3.70
2018-07-24T18:46:47.413Z,5.67
2018-07-24T18:49:20.549Z,8.23
2018-07-24T18:51:48.822Z,4.93
2018-07-24T18:54:17.126Z,7.40
2018-07-24T18:56:48.917Z,6.23
2018-07-24T18:59:17.337Z,4.80
2018-07-24T19:01:45.610Z,2.97
2018-07-24T19:04:13.937Z,7.00
2018-07-24T19:06:42.238Z,4.33
2018-07-24T19:09:11.506Z,5.40
2018-07-24T19:11:40.106Z,10.55
2018-07-24T19:14:08.771Z,11.93
2018-07-24T19:16:37.069Z,6.23
2018-07-24T19:19:05.364Z,4.53
2018-07-24T19:21:33.774Z,3.23
2018-07-24T19:24:02.057Z,5.63
2018-07-24T19:26:30.362Z,7.37
2018-07-24T19:28:58.685Z,6.50
2018-07-24T19:31:27.008Z,4.07
2018-07-24T19:33:56.369Z,9.17
2018-07-24T19:36:24.651Z,4.73
2018-07-24T19:38:52.960Z,4.00
2018-07-24T19:41:21.181Z,5.33
2018-07-24T19:43:49.520Z,4.10
2018-07-24T19:46:17.725Z,5.50
2018-07-24T19:48:45.981Z,7.13
2018-07-24T19:51:14.334Z,4.90
2018-07-24T19:53:42.596Z,11.53
2018-07-24T19:56:11.061Z,17.50
2018-07-24T19:58:39.350Z,6.17
2018-07-24T20:01:07.609Z,4.17
2018-07-24T20:03:35.976Z,10.43
2018-07-24T20:06:04.281Z,4.77
2018-07-24T20:08:32.557Z,9.13
2018-07-24T20:11:00.826Z,5.70
2018-07-24T20:13:29.107Z,4.43
2018-07-24T20:15:57.568Z,5.70
2018-07-24T20:18:25.873Z,4.63
2018-07-24T20:20:54.126Z,8.63
2018-07-24T20:23:22.481Z,7.90
2018-07-24T20:25:50.679Z,7.23
2018-07-24T20:28:19.116Z,9.17
2018-07-24T20:30:47.570Z,6.00
2018-07-24T20:33:15.852Z,4.83
2018-07-24T20:35:44.322Z,5.50
2018-07-24T20:38:12.481Z,6.70
2018-07-24T20:40:40.737Z,5.07
2018-07-24T20:43:09.053Z,7.80
2018-07-24T20:45:37.343Z,7.47
2018-07-24T20:48:07.071Z,17.13
2018-07-24T20:50:36.928Z,10.10
2018-07-24T20:53:05.354Z,6.20
2018-07-24T20:55:33.742Z,7.40
2018-07-24T20:58:02.042Z,8.70
2018-07-24T21:00:30.366Z,6.25
2018-07-24T21:03:00.622Z,9.10
2018-07-24T21:05:28.949Z,7.40
2018-07-24T21:07:58.264Z,5.50
2018-07-24T21:10:28.661Z,6.85
2018-07-24T21:12:57.060Z,6.28
2018-07-24T21:15:25.329Z,6.45
2018-07-24T21:17:54.620Z,6.30
2018-07-24T21:20:25.033Z,8.53
2018-07-24T21:22:53.261Z,8.37
2018-07-24T21:25:22.652Z,8.30
2018-07-24T21:27:50.941Z,6.57
2018-07-24T21:30:19.269Z,5.43
2018-07-24T21:32:47.541Z,6.23
2018-07-24T21:35:15.840Z,6.50
2018-07-24T21:37:46.535Z,10.50
2018-07-24T21:40:15.934Z,6.93
2018-07-24T21:42:44.287Z,7.53
2018-07-24T21:45:12.564Z,8.70
2018-07-24T21:47:40.866Z,10.00
2018-07-24T21:50:09.142Z,8.13
2018-07-24T21:52:37.453Z,5.70
2018-07-24T21:55:05.729Z,8.83
2018-07-24T21:57:34.033Z,17.97
2018-07-24T22:00:02.344Z,5.73
2018-07-24T22:02:30.637Z,6.90
2018-07-24T22:04:58.931Z,9.93
2018-07-24T22:07:28.233Z,6.50
2018-07-24T22:09:56.502Z,8.07
2018-07-24T22:12:24.797Z,6.20
2018-07-24T22:14:53.081Z,8.10
2018-07-24T22:17:21.407Z,7.13
2018-07-24T22:19:50.779Z,9.40
2018-07-24T22:22:19.213Z,7.37
2018-07-24T22:24:47.500Z,6.40
2018-07-24T22:27:15.843Z,7.00
2018-07-24T22:29:45.165Z,5.57
2018-07-24T22:32:13.465Z,6.93
2018-07-24T22:34:41.731Z,5.80
2018-07-24T22:37:10.086Z,12.37
2018-07-24T22:39:38.365Z,5.80
2018-07-24T22:42:07.745Z,5.20
2018-07-24T22:44:36.050Z,4.90
2018-07-24T22:47:04.325Z,4.87
2018-07-24T22:49:32.613Z,8.73
2018-07-24T22:52:00.905Z,4.80
2018-07-24T22:54:32.477Z,10.50
2018-07-24T22:57:00.832Z,5.27
2018-07-24T22:59:31.160Z,5.17
2018-07-24T23:01:59.445Z,5.77
2018-07-24T23:04:27.742Z,6.20
2018-07-24T23:06:56.078Z,4.63
2018-07-24T23:09:24.377Z,10.70
2018-07-24T23:11:54.341Z,6.77
2018-07-24T23:14:22.641Z,6.23
2018-07-24T23:16:51.091Z,6.23
2018-07-24T23:19:19.421Z,5.83
2018-07-24T23:21:48.714Z,6.67
2018-07-24T23:24:20.341Z,4.73
2018-07-24T23:26:49.669Z,4.13
2018-07-24T23:29:17.957Z,4.70
2018-07-24T23:31:46.333Z,6.13
2018-07-24T23:34:14.672Z,5.23
2018-07-24T23:36:44.001Z,8.10
2018-07-24T23:39:14.356Z,9.20
2018-07-24T23:41:42.680Z,5.80
2018-07-24T23:44:10.965Z,9.23
2018-07-24T23:46:39.598Z,5.80
2018-07-24T23:50:11.004Z,6.20
2018-07-24T23:52:40.309Z,6.10
2018-07-24T23:55:08.580Z,6.10
2018-07-24T23:57:36.955Z,6.40
